Des Moines, Iowa
Current Conditions -  °F | °C
As of 10:54 AM on Thursday 23 Oct 2014 (Local Time) from KDSM Reporting Station
Overcast Overcast  
Wind Chill: 59°   Ceiling: 600
Heat Index: 59°   Visibility: 7mi
Dew Point: 56°   Wind: 8mph
Humidity: 90%   Direction: 240°WSW
Pressure: 30.05"   Gusts: NA
Location:  41.59°N, 93.61°W
Report Text: KDSM 231554Z 24007KT 7SM OVC006 15/13 A3005 RMK AO2 SLP176 T01500133
Loading
Personal Weather Stations






























Interactive Weather Map
Tropical Storm Tracking
New forecast layout! Learn more

10-Day Weather Forecast

Advertisements
Track Severe Weather on mobile